sensor_id;sensor_type;location;lat;lon;timestamp;P1;durP1;ratioP1;P2;durP2;ratioP2
50205;SDS011;36098;48.390;10.856;2022-12-18T00:01:41;8.93;;;6.30;;
50205;SDS011;36098;48.390;10.856;2022-12-18T00:04:07;9.38;;;6.00;;
50205;SDS011;36098;48.390;10.856;2022-12-18T00:06:44;10.15;;;6.53;;
50205;SDS011;36098;48.390;10.856;2022-12-18T00:09:10;9.23;;;6.03;;
50205;SDS011;36098;48.390;10.856;2022-12-18T00:11:35;10.07;;;6.57;;
50205;SDS011;36098;48.390;10.856;2022-12-18T00:14:00;10.70;;;6.40;;
50205;SDS011;36098;48.390;10.856;2022-12-18T00:16:26;10.85;;;6.13;;
50205;SDS011;36098;48.390;10.856;2022-12-18T00:18:53;9.63;;;6.60;;
50205;SDS011;36098;48.390;10.856;2022-12-18T00:21:21;9.55;;;6.70;;
50205;SDS011;36098;48.390;10.856;2022-12-18T00:23:47;10.23;;;6.40;;
50205;SDS011;36098;48.390;10.856;2022-12-18T00:26:15;9.70;;;6.53;;
50205;SDS011;36098;48.390;10.856;2022-12-18T00:28:42;9.93;;;6.03;;
50205;SDS011;36098;48.390;10.856;2022-12-18T00:31:12;10.20;;;6.30;;
50205;SDS011;36098;48.390;10.856;2022-12-18T00:33:40;8.05;;;5.82;;
50205;SDS011;36098;48.390;10.856;2022-12-18T00:36:06;10.73;;;6.40;;
50205;SDS011;36098;48.390;10.856;2022-12-18T00:38:34;11.02;;;6.20;;
50205;SDS011;36098;48.390;10.856;2022-12-18T00:41:00;8.98;;;5.70;;
50205;SDS011;36098;48.390;10.856;2022-12-18T00:43:25;10.30;;;6.28;;
50205;SDS011;36098;48.390;10.856;2022-12-18T00:45:51;9.98;;;6.32;;
50205;SDS011;36098;48.390;10.856;2022-12-18T00:48:16;8.65;;;5.60;;
50205;SDS011;36098;48.390;10.856;2022-12-18T00:50:42;9.48;;;6.25;;
50205;SDS011;36098;48.390;10.856;2022-12-18T00:53:07;8.70;;;5.80;;
50205;SDS011;36098;48.390;10.856;2022-12-18T00:55:32;8.23;;;6.07;;
50205;SDS011;36098;48.390;10.856;2022-12-18T00:57:58;8.82;;;5.93;;
50205;SDS011;36098;48.390;10.856;2022-12-18T01:00:23;9.02;;;5.70;;
50205;SDS011;36098;48.390;10.856;2022-12-18T01:02:48;9.90;;;5.95;;
50205;SDS011;36098;48.390;10.856;2022-12-18T01:05:14;10.25;;;6.07;;
50205;SDS011;36098;48.390;10.856;2022-12-18T01:07:40;8.98;;;6.05;;
50205;SDS011;36098;48.390;10.856;2022-12-18T01:10:06;8.30;;;5.47;;
50205;SDS011;36098;48.390;10.856;2022-12-18T01:12:33;8.40;;;5.72;;
50205;SDS011;36098;48.390;10.856;2022-12-18T01:14:58;7.95;;;5.35;;
50205;SDS011;36098;48.390;10.856;2022-12-18T01:17:24;9.35;;;5.90;;
50205;SDS011;36098;48.390;10.856;2022-12-18T01:19:49;8.88;;;5.60;;
50205;SDS011;36098;48.390;10.856;2022-12-18T01:22:14;8.10;;;5.47;;
50205;SDS011;36098;48.390;10.856;2022-12-18T01:24:40;7.82;;;5.40;;
50205;SDS011;36098;48.390;10.856;2022-12-18T01:27:05;7.97;;;5.40;;
50205;SDS011;36098;48.390;10.856;2022-12-18T01:29:31;9.60;;;5.45;;
50205;SDS011;36098;48.390;10.856;2022-12-18T01:31:56;9.98;;;5.90;;
50205;SDS011;36098;48.390;10.856;2022-12-18T01:34:22;9.32;;;5.55;;
50205;SDS011;36098;48.390;10.856;2022-12-18T01:36:48;8.25;;;5.53;;
50205;SDS011;36098;48.390;10.856;2022-12-18T01:39:14;8.55;;;5.72;;
50205;SDS011;36098;48.390;10.856;2022-12-18T01:41:40;9.27;;;5.78;;
50205;SDS011;36098;48.390;10.856;2022-12-18T01:47:35;9.55;;;5.95;;
50205;SDS011;36098;48.390;10.856;2022-12-18T01:50:15;8.05;;;5.47;;
50205;SDS011;36098;48.390;10.856;2022-12-18T01:52:43;7.57;;;5.43;;
50205;SDS011;36098;48.390;10.856;2022-12-18T01:55:12;8.27;;;5.47;;
50205;SDS011;36098;48.390;10.856;2022-12-18T01:57:42;9.07;;;6.20;;
50205;SDS011;36098;48.390;10.856;2022-12-18T02:00:13;6.90;;;5.13;;
50205;SDS011;36098;48.390;10.856;2022-12-18T02:02:41;10.27;;;5.75;;
50205;SDS011;36098;48.390;10.856;2022-12-18T02:05:10;8.45;;;5.38;;
50205;SDS011;36098;48.390;10.856;2022-12-18T02:13:02;8.77;;;5.53;;
50205;SDS011;36098;48.390;10.856;2022-12-18T02:18:05;8.65;;;5.60;;
50205;SDS011;36098;48.390;10.856;2022-12-18T02:20:36;8.52;;;5.47;;
50205;SDS011;36098;48.390;10.856;2022-12-18T02:26:00;8.68;;;5.40;;
50205;SDS011;36098;48.390;10.856;2022-12-18T02:28:28;7.63;;;5.20;;
50205;SDS011;36098;48.390;10.856;2022-12-18T02:30:59;7.72;;;5.30;;
50205;SDS011;36098;48.390;10.856;2022-12-18T02:33:27;8.45;;;5.68;;
50205;SDS011;36098;48.390;10.856;2022-12-18T02:35:54;8.30;;;5.45;;
50205;SDS011;36098;48.390;10.856;2022-12-18T02:38:22;8.20;;;5.53;;
50205;SDS011;36098;48.390;10.856;2022-12-18T02:40:48;8.23;;;5.47;;
50205;SDS011;36098;48.390;10.856;2022-12-18T02:43:15;7.68;;;5.43;;
50205;SDS011;36098;48.390;10.856;2022-12-18T02:45:47;8.25;;;5.40;;
50205;SDS011;36098;48.390;10.856;2022-12-18T02:48:24;7.78;;;5.03;;
50205;SDS011;36098;48.390;10.856;2022-12-18T02:51:03;8.65;;;5.40;;
50205;SDS011;36098;48.390;10.856;2022-12-18T02:53:36;7.15;;;5.32;;
50205;SDS011;36098;48.390;10.856;2022-12-18T03:01:38;7.35;;;5.00;;
50205;SDS011;36098;48.390;10.856;2022-12-18T03:04:19;7.35;;;5.30;;
50205;SDS011;36098;48.390;10.856;2022-12-18T03:06:50;6.63;;;4.88;;
50205;SDS011;36098;48.390;10.856;2022-12-18T03:09:21;7.75;;;4.97;;
50205;SDS011;36098;48.390;10.856;2022-12-18T03:11:57;7.20;;;4.93;;
50205;SDS011;36098;48.390;10.856;2022-12-18T03:14:47;7.00;;;5.07;;
50205;SDS011;36098;48.390;10.856;2022-12-18T03:17:17;7.53;;;5.30;;
50205;SDS011;36098;48.390;10.856;2022-12-18T03:19:48;7.80;;;5.53;;
50205;SDS011;36098;48.390;10.856;2022-12-18T03:22:15;6.90;;;5.13;;
50205;SDS011;36098;48.390;10.856;2022-12-18T03:24:41;7.20;;;4.97;;
50205;SDS011;36098;48.390;10.856;2022-12-18T03:27:08;7.40;;;4.93;;
50205;SDS011;36098;48.390;10.856;2022-12-18T03:32:52;7.63;;;5.25;;
50205;SDS011;36098;48.390;10.856;2022-12-18T03:35:28;6.07;;;4.78;;
50205;SDS011;36098;48.390;10.856;2022-12-18T03:37:57;6.60;;;4.85;;
50205;SDS011;36098;48.390;10.856;2022-12-18T03:40:25;6.20;;;4.57;;
50205;SDS011;36098;48.390;10.856;2022-12-18T03:42:57;7.32;;;5.18;;
50205;SDS011;36098;48.390;10.856;2022-12-18T03:45:41;7.68;;;5.15;;
50205;SDS011;36098;48.390;10.856;2022-12-18T03:48:19;6.22;;;4.45;;
50205;SDS011;36098;48.390;10.856;2022-12-18T03:56:09;7.40;;;4.78;;
50205;SDS011;36098;48.390;10.856;2022-12-18T03:58:36;7.78;;;4.80;;
50205;SDS011;36098;48.390;10.856;2022-12-18T04:01:05;6.40;;;4.78;;
50205;SDS011;36098;48.390;10.856;2022-12-18T04:03:33;7.20;;;4.60;;
50205;SDS011;36098;48.390;10.856;2022-12-18T04:06:00;5.95;;;4.47;;
50205;SDS011;36098;48.390;10.856;2022-12-18T04:08:27;7.07;;;4.85;;
50205;SDS011;36098;48.390;10.856;2022-12-18T04:10:53;6.65;;;4.38;;
50205;SDS011;36098;48.390;10.856;2022-12-18T04:13:22;6.65;;;4.60;;
50205;SDS011;36098;48.390;10.856;2022-12-18T04:15:49;6.80;;;4.80;;
50205;SDS011;36098;48.390;10.856;2022-12-18T04:18:14;8.38;;;5.00;;
50205;SDS011;36098;48.390;10.856;2022-12-18T04:20:39;6.32;;;4.65;;
50205;SDS011;36098;48.390;10.856;2022-12-18T04:23:05;6.78;;;4.68;;
50205;SDS011;36098;48.390;10.856;2022-12-18T04:25:30;6.60;;;4.30;;
50205;SDS011;36098;48.390;10.856;2022-12-18T04:27:55;6.75;;;4.72;;
50205;SDS011;36098;48.390;10.856;2022-12-18T04:30:20;6.15;;;4.40;;
50205;SDS011;36098;48.390;10.856;2022-12-18T04:32:46;6.95;;;4.70;;
50205;SDS011;36098;48.390;10.856;2022-12-18T04:35:11;6.32;;;4.45;;
50205;SDS011;36098;48.390;10.856;2022-12-18T04:37:36;6.13;;;4.40;;
50205;SDS011;36098;48.390;10.856;2022-12-18T04:40:02;6.72;;;4.80;;
50205;SDS011;36098;48.390;10.856;2022-12-18T04:42:27;6.15;;;4.50;;
50205;SDS011;36098;48.390;10.856;2022-12-18T04:44:53;7.10;;;4.80;;
50205;SDS011;36098;48.390;10.856;2022-12-18T04:47:18;6.03;;;4.40;;
50205;SDS011;36098;48.390;10.856;2022-12-18T04:49:43;6.55;;;4.75;;
50205;SDS011;36098;48.390;10.856;2022-12-18T04:52:09;6.00;;;4.20;;
50205;SDS011;36098;48.390;10.856;2022-12-18T04:54:34;5.75;;;4.55;;
50205;SDS011;36098;48.390;10.856;2022-12-18T04:56:59;5.35;;;3.90;;
50205;SDS011;36098;48.390;10.856;2022-12-18T04:59:24;6.45;;;4.45;;
50205;SDS011;36098;48.390;10.856;2022-12-18T05:01:50;6.38;;;4.40;;
50205;SDS011;36098;48.390;10.856;2022-12-18T05:04:15;5.90;;;4.22;;
50205;SDS011;36098;48.390;10.856;2022-12-18T05:06:40;5.07;;;3.85;;
50205;SDS011;36098;48.390;10.856;2022-12-18T05:09:05;6.00;;;4.50;;
50205;SDS011;36098;48.390;10.856;2022-12-18T05:11:31;5.68;;;4.00;;
50205;SDS011;36098;48.390;10.856;2022-12-18T05:13:56;6.32;;;3.97;;
50205;SDS011;36098;48.390;10.856;2022-12-18T05:16:21;6.18;;;4.40;;
50205;SDS011;36098;48.390;10.856;2022-12-18T05:18:47;7.22;;;4.18;;
50205;SDS011;36098;48.390;10.856;2022-12-18T05:21:12;5.90;;;4.35;;
50205;SDS011;36098;48.390;10.856;2022-12-18T05:23:37;6.03;;;4.28;;
50205;SDS011;36098;48.390;10.856;2022-12-18T05:26:04;5.65;;;4.25;;
50205;SDS011;36098;48.390;10.856;2022-12-18T05:28:31;5.30;;;3.83;;
50205;SDS011;36098;48.390;10.856;2022-12-18T05:30:59;5.82;;;4.18;;
50205;SDS011;36098;48.390;10.856;2022-12-18T05:33:26;6.32;;;4.68;;
50205;SDS011;36098;48.390;10.856;2022-12-18T05:35:55;10.32;;;4.68;;
50205;SDS011;36098;48.390;10.856;2022-12-18T05:38:23;5.40;;;4.10;;
50205;SDS011;36098;48.390;10.856;2022-12-18T05:40:49;6.75;;;4.22;;
50205;SDS011;36098;48.390;10.856;2022-12-18T05:43:15;6.05;;;4.20;;
50205;SDS011;36098;48.390;10.856;2022-12-18T05:45:41;5.40;;;3.95;;
50205;SDS011;36098;48.390;10.856;2022-12-18T05:48:07;5.93;;;4.30;;
50205;SDS011;36098;48.390;10.856;2022-12-18T05:50:34;6.72;;;4.28;;
50205;SDS011;36098;48.390;10.856;2022-12-18T05:53:03;5.45;;;3.95;;
50205;SDS011;36098;48.390;10.856;2022-12-18T05:55:32;5.60;;;3.78;;
50205;SDS011;36098;48.390;10.856;2022-12-18T05:58:02;5.60;;;4.10;;
50205;SDS011;36098;48.390;10.856;2022-12-18T06:00:28;7.68;;;4.05;;
50205;SDS011;36098;48.390;10.856;2022-12-18T06:02:54;5.93;;;4.03;;
50205;SDS011;36098;48.390;10.856;2022-12-18T06:05:19;4.70;;;3.58;;
50205;SDS011;36098;48.390;10.856;2022-12-18T06:07:44;5.63;;;4.00;;
50205;SDS011;36098;48.390;10.856;2022-12-18T06:10:10;5.03;;;3.70;;
50205;SDS011;36098;48.390;10.856;2022-12-18T06:12:36;4.75;;;3.83;;
50205;SDS011;36098;48.390;10.856;2022-12-18T06:15:02;5.53;;;3.85;;
50205;SDS011;36098;48.390;10.856;2022-12-18T06:17:28;6.05;;;4.22;;
50205;SDS011;36098;48.390;10.856;2022-12-18T06:19:54;6.10;;;4.47;;
50205;SDS011;36098;48.390;10.856;2022-12-18T06:22:19;5.53;;;4.32;;
50205;SDS011;36098;48.390;10.856;2022-12-18T06:24:45;7.65;;;4.70;;
50205;SDS011;36098;48.390;10.856;2022-12-18T06:27:10;6.18;;;4.55;;
50205;SDS011;36098;48.390;10.856;2022-12-18T06:29:35;6.05;;;4.45;;
50205;SDS011;36098;48.390;10.856;2022-12-18T06:32:00;5.55;;;4.00;;
50205;SDS011;36098;48.390;10.856;2022-12-18T06:34:26;6.07;;;4.18;;
50205;SDS011;36098;48.390;10.856;2022-12-18T06:36:51;6.05;;;4.20;;
50205;SDS011;36098;48.390;10.856;2022-12-18T06:39:16;6.20;;;3.95;;
50205;SDS011;36098;48.390;10.856;2022-12-18T06:41:41;5.68;;;4.40;;
50205;SDS011;36098;48.390;10.856;2022-12-18T06:44:07;6.43;;;4.20;;
50205;SDS011;36098;48.390;10.856;2022-12-18T06:46:32;5.25;;;4.13;;
50205;SDS011;36098;48.390;10.856;2022-12-18T06:48:57;5.88;;;4.30;;
50205;SDS011;36098;48.390;10.856;2022-12-18T06:51:23;5.55;;;4.35;;
50205;SDS011;36098;48.390;10.856;2022-12-18T06:53:49;5.85;;;4.03;;
50205;SDS011;36098;48.390;10.856;2022-12-18T06:56:14;6.10;;;4.10;;
50205;SDS011;36098;48.390;10.856;2022-12-18T06:58:40;5.03;;;3.95;;
50205;SDS011;36098;48.390;10.856;2022-12-18T07:01:07;5.72;;;4.22;;
50205;SDS011;36098;48.390;10.856;2022-12-18T07:03:34;5.32;;;4.10;;
50205;SDS011;36098;48.390;10.856;2022-12-18T07:05:59;5.80;;;4.25;;
50205;SDS011;36098;48.390;10.856;2022-12-18T07:08:24;5.95;;;3.80;;
50205;SDS011;36098;48.390;10.856;2022-12-18T07:10:50;4.38;;;3.42;;
50205;SDS011;36098;48.390;10.856;2022-12-18T07:13:15;7.25;;;4.18;;
50205;SDS011;36098;48.390;10.856;2022-12-18T07:15:42;5.97;;;4.30;;
50205;SDS011;36098;48.390;10.856;2022-12-18T07:18:08;6.40;;;4.30;;
50205;SDS011;36098;48.390;10.856;2022-12-18T07:20:33;9.65;;;4.03;;
50205;SDS011;36098;48.390;10.856;2022-12-18T07:22:58;4.80;;;3.75;;
50205;SDS011;36098;48.390;10.856;2022-12-18T07:25:26;5.15;;;3.90;;
50205;SDS011;36098;48.390;10.856;2022-12-18T07:27:51;5.57;;;3.88;;
50205;SDS011;36098;48.390;10.856;2022-12-18T07:30:16;5.47;;;3.60;;
50205;SDS011;36098;48.390;10.856;2022-12-18T07:32:42;6.45;;;4.28;;
50205;SDS011;36098;48.390;10.856;2022-12-18T07:35:07;5.50;;;3.70;;
50205;SDS011;36098;48.390;10.856;2022-12-18T07:37:32;5.13;;;3.90;;
50205;SDS011;36098;48.390;10.856;2022-12-18T07:39:58;8.55;;;4.00;;
50205;SDS011;36098;48.390;10.856;2022-12-18T07:42:23;5.25;;;3.80;;
50205;SDS011;36098;48.390;10.856;2022-12-18T07:44:58;6.15;;;4.07;;
50205;SDS011;36098;48.390;10.856;2022-12-18T07:47:24;5.75;;;3.42;;
50205;SDS011;36098;48.390;10.856;2022-12-18T07:49:49;4.70;;;3.65;;
50205;SDS011;36098;48.390;10.856;2022-12-18T07:52:14;8.60;;;3.53;;
50205;SDS011;36098;48.390;10.856;2022-12-18T07:54:40;5.35;;;3.60;;
50205;SDS011;36098;48.390;10.856;2022-12-18T07:57:05;5.60;;;3.38;;
50205;SDS011;36098;48.390;10.856;2022-12-18T07:59:31;5.53;;;3.70;;
50205;SDS011;36098;48.390;10.856;2022-12-18T08:01:56;5.45;;;4.10;;
50205;SDS011;36098;48.390;10.856;2022-12-18T08:04:22;7.53;;;3.50;;
50205;SDS011;36098;48.390;10.856;2022-12-18T08:06:47;4.30;;;3.20;;
50205;SDS011;36098;48.390;10.856;2022-12-18T08:09:12;6.45;;;4.07;;
50205;SDS011;36098;48.390;10.856;2022-12-18T08:11:38;12.23;;;3.90;;
50205;SDS011;36098;48.390;10.856;2022-12-18T08:14:03;5.38;;;3.75;;
50205;SDS011;36098;48.390;10.856;2022-12-18T08:16:28;3.67;;;2.97;;
50205;SDS011;36098;48.390;10.856;2022-12-18T08:18:55;6.10;;;3.50;;
50205;SDS011;36098;48.390;10.856;2022-12-18T08:21:22;7.00;;;3.35;;
50205;SDS011;36098;48.390;10.856;2022-12-18T08:23:50;4.68;;;3.40;;
50205;SDS011;36098;48.390;10.856;2022-12-18T08:26:16;6.88;;;3.65;;
50205;SDS011;36098;48.390;10.856;2022-12-18T08:28:41;4.28;;;3.50;;
50205;SDS011;36098;48.390;10.856;2022-12-18T08:31:07;5.82;;;3.10;;
50205;SDS011;36098;48.390;10.856;2022-12-18T08:33:34;4.63;;;3.38;;
50205;SDS011;36098;48.390;10.856;2022-12-18T08:36:00;7.22;;;3.47;;
50205;SDS011;36098;48.390;10.856;2022-12-18T08:38:26;7.25;;;3.40;;
50205;SDS011;36098;48.390;10.856;2022-12-18T08:41:10;4.65;;;2.67;;
50205;SDS011;36098;48.390;10.856;2022-12-18T08:43:36;6.60;;;3.55;;
50205;SDS011;36098;48.390;10.856;2022-12-18T08:46:21;4.38;;;3.55;;
50205;SDS011;36098;48.390;10.856;2022-12-18T08:48:47;5.32;;;3.22;;
50205;SDS011;36098;48.390;10.856;2022-12-18T08:51:12;4.57;;;3.15;;
50205;SDS011;36098;48.390;10.856;2022-12-18T08:53:40;6.18;;;3.65;;
50205;SDS011;36098;48.390;10.856;2022-12-18T08:56:05;6.68;;;3.88;;
50205;SDS011;36098;48.390;10.856;2022-12-18T08:58:31;10.30;;;4.55;;
50205;SDS011;36098;48.390;10.856;2022-12-18T09:01:03;7.35;;;4.45;;
50205;SDS011;36098;48.390;10.856;2022-12-18T09:03:29;8.25;;;4.70;;
50205;SDS011;36098;48.390;10.856;2022-12-18T09:05:54;7.88;;;4.60;;
50205;SDS011;36098;48.390;10.856;2022-12-18T09:08:20;10.73;;;4.93;;
50205;SDS011;36098;48.390;10.856;2022-12-18T09:10:46;7.68;;;5.03;;
50205;SDS011;36098;48.390;10.856;2022-12-18T09:13:13;7.78;;;4.75;;
50205;SDS011;36098;48.390;10.856;2022-12-18T09:15:42;16.38;;;4.60;;
50205;SDS011;36098;48.390;10.856;2022-12-18T09:18:10;8.23;;;5.13;;
50205;SDS011;36098;48.390;10.856;2022-12-18T09:20:36;8.38;;;5.00;;
50205;SDS011;36098;48.390;10.856;2022-12-18T09:23:02;6.85;;;4.63;;
50205;SDS011;36098;48.390;10.856;2022-12-18T09:25:28;6.50;;;4.20;;
50205;SDS011;36098;48.390;10.856;2022-12-18T09:27:58;8.90;;;4.60;;
50205;SDS011;36098;48.390;10.856;2022-12-18T09:30:48;14.32;;;5.18;;
50205;SDS011;36098;48.390;10.856;2022-12-18T09:33:14;11.55;;;5.00;;
50205;SDS011;36098;48.390;10.856;2022-12-18T09:35:41;9.30;;;5.47;;
50205;SDS011;36098;48.390;10.856;2022-12-18T09:38:08;10.93;;;5.53;;
50205;SDS011;36098;48.390;10.856;2022-12-18T09:40:40;9.68;;;4.68;;
50205;SDS011;36098;48.390;10.856;2022-12-18T09:43:10;8.85;;;4.70;;
50205;SDS011;36098;48.390;10.856;2022-12-18T09:45:42;13.27;;;5.60;;
50205;SDS011;36098;48.390;10.856;2022-12-18T09:48:15;11.55;;;5.20;;
50205;SDS011;36098;48.390;10.856;2022-12-18T09:50:46;10.50;;;4.80;;
50205;SDS011;36098;48.390;10.856;2022-12-18T09:53:17;9.82;;;4.90;;
50205;SDS011;36098;48.390;10.856;2022-12-18T09:55:47;9.65;;;4.95;;
50205;SDS011;36098;48.390;10.856;2022-12-18T10:00:44;8.85;;;4.93;;
50205;SDS011;36098;48.390;10.856;2022-12-18T10:03:11;9.45;;;5.20;;
50205;SDS011;36098;48.390;10.856;2022-12-18T10:08:24;6.43;;;4.75;;
50205;SDS011;36098;48.390;10.856;2022-12-18T10:10:53;7.03;;;4.57;;
50205;SDS011;36098;48.390;10.856;2022-12-18T10:13:37;10.20;;;4.57;;
50205;SDS011;36098;48.390;10.856;2022-12-18T10:16:09;8.82;;;4.60;;
50205;SDS011;36098;48.390;10.856;2022-12-18T10:21:42;8.80;;;4.50;;
50205;SDS011;36098;48.390;10.856;2022-12-18T10:24:38;10.40;;;4.60;;
50205;SDS011;36098;48.390;10.856;2022-12-18T10:27:16;9.02;;;4.70;;
50205;SDS011;36098;48.390;10.856;2022-12-18T10:29:46;7.90;;;4.63;;
50205;SDS011;36098;48.390;10.856;2022-12-18T10:32:16;8.50;;;4.50;;
50205;SDS011;36098;48.390;10.856;2022-12-18T10:34:46;7.78;;;4.45;;
50205;SDS011;36098;48.390;10.856;2022-12-18T10:37:15;7.82;;;4.50;;
50205;SDS011;36098;48.390;10.856;2022-12-18T10:39:42;7.82;;;4.75;;
50205;SDS011;36098;48.390;10.856;2022-12-18T10:42:09;7.25;;;4.63;;
50205;SDS011;36098;48.390;10.856;2022-12-18T10:44:44;9.20;;;4.68;;
50205;SDS011;36098;48.390;10.856;2022-12-18T10:47:15;6.95;;;4.55;;
50205;SDS011;36098;48.390;10.856;2022-12-18T10:52:15;7.72;;;4.50;;
50205;SDS011;36098;48.390;10.856;2022-12-18T10:54:47;6.53;;;3.90;;
50205;SDS011;36098;48.390;10.856;2022-12-18T10:59:56;8.23;;;4.28;;
50205;SDS011;36098;48.390;10.856;2022-12-18T11:02:33;6.05;;;4.13;;
50205;SDS011;36098;48.390;10.856;2022-12-18T11:05:00;6.30;;;4.22;;
50205;SDS011;36098;48.390;10.856;2022-12-18T11:07:26;5.95;;;4.15;;
50205;SDS011;36098;48.390;10.856;2022-12-18T11:10:16;5.50;;;4.35;;
50205;SDS011;36098;48.390;10.856;2022-12-18T11:12:43;6.53;;;4.43;;
50205;SDS011;36098;48.390;10.856;2022-12-18T11:15:21;5.65;;;4.10;;
50205;SDS011;36098;48.390;10.856;2022-12-18T11:17:51;5.72;;;3.97;;
50205;SDS011;36098;48.390;10.856;2022-12-18T11:20:21;6.75;;;4.18;;
50205;SDS011;36098;48.390;10.856;2022-12-18T11:23:04;6.03;;;4.07;;
50205;SDS011;36098;48.390;10.856;2022-12-18T11:25:36;5.95;;;3.97;;
50205;SDS011;36098;48.390;10.856;2022-12-18T11:28:03;7.28;;;4.18;;
50205;SDS011;36098;48.390;10.856;2022-12-18T11:30:29;5.30;;;3.80;;
50205;SDS011;36098;48.390;10.856;2022-12-18T11:33:01;5.85;;;3.63;;
50205;SDS011;36098;48.390;10.856;2022-12-18T11:38:22;7.35;;;4.13;;
50205;SDS011;36098;48.390;10.856;2022-12-18T11:40:51;5.47;;;3.85;;
50205;SDS011;36098;48.390;10.856;2022-12-18T11:43:26;5.27;;;3.97;;
50205;SDS011;36098;48.390;10.856;2022-12-18T11:45:58;5.45;;;3.80;;
50205;SDS011;36098;48.390;10.856;2022-12-18T11:48:28;5.95;;;4.07;;
50205;SDS011;36098;48.390;10.856;2022-12-18T11:50:59;6.28;;;3.95;;
50205;SDS011;36098;48.390;10.856;2022-12-18T11:53:28;5.30;;;3.80;;
50205;SDS011;36098;48.390;10.856;2022-12-18T11:56:06;6.57;;;3.83;;
50205;SDS011;36098;48.390;10.856;2022-12-18T11:58:47;6.25;;;4.10;;
50205;SDS011;36098;48.390;10.856;2022-12-18T12:09:46;6.78;;;3.88;;
50205;SDS011;36098;48.390;10.856;2022-12-18T12:37:23;10.70;;;4.75;;
50205;SDS011;36098;48.390;10.856;2022-12-18T12:39:58;14.13;;;5.78;;
50205;SDS011;36098;48.390;10.856;2022-12-18T12:42:47;12.13;;;5.20;;
50205;SDS011;36098;48.390;10.856;2022-12-18T12:45:34;10.23;;;5.10;;
50205;SDS011;36098;48.390;10.856;2022-12-18T12:48:04;16.65;;;5.38;;
50205;SDS011;36098;48.390;10.856;2022-12-18T12:50:32;12.20;;;5.18;;
50205;SDS011;36098;48.390;10.856;2022-12-18T12:52:59;9.73;;;5.43;;
50205;SDS011;36098;48.390;10.856;2022-12-18T12:55:26;20.15;;;8.57;;
50205;SDS011;36098;48.390;10.856;2022-12-18T12:58:02;26.25;;;13.13;;
50205;SDS011;36098;48.390;10.856;2022-12-18T13:00:31;29.35;;;16.55;;
50205;SDS011;36098;48.390;10.856;2022-12-18T13:05:53;15.07;;;6.03;;
50205;SDS011;36098;48.390;10.856;2022-12-18T13:08:26;14.88;;;6.00;;
50205;SDS011;36098;48.390;10.856;2022-12-18T13:10:57;12.98;;;5.43;;
50205;SDS011;36098;48.390;10.856;2022-12-18T13:13:49;12.02;;;6.03;;
50205;SDS011;36098;48.390;10.856;2022-12-18T13:19:18;14.48;;;6.30;;
50205;SDS011;36098;48.390;10.856;2022-12-18T13:21:51;14.25;;;6.30;;
50205;SDS011;36098;48.390;10.856;2022-12-18T13:26:51;10.50;;;5.60;;
50205;SDS011;36098;48.390;10.856;2022-12-18T13:32:20;13.73;;;5.40;;
50205;SDS011;36098;48.390;10.856;2022-12-18T13:34:47;10.88;;;5.03;;
50205;SDS011;36098;48.390;10.856;2022-12-18T13:39:56;11.65;;;5.60;;
50205;SDS011;36098;48.390;10.856;2022-12-18T13:42:39;10.98;;;5.10;;
50205;SDS011;36098;48.390;10.856;2022-12-18T13:45:43;10.70;;;5.50;;
50205;SDS011;36098;48.390;10.856;2022-12-18T13:48:24;13.38;;;5.90;;
50205;SDS011;36098;48.390;10.856;2022-12-18T13:50:52;9.43;;;5.28;;
50205;SDS011;36098;48.390;10.856;2022-12-18T13:54:00;11.65;;;5.30;;
50205;SDS011;36098;48.390;10.856;2022-12-18T13:56:31;11.23;;;5.30;;
50205;SDS011;36098;48.390;10.856;2022-12-18T14:01:44;14.57;;;5.03;;
50205;SDS011;36098;48.390;10.856;2022-12-18T14:04:23;11.50;;;5.45;;
50205;SDS011;36098;48.390;10.856;2022-12-18T14:06:58;11.60;;;4.97;;
50205;SDS011;36098;48.390;10.856;2022-12-18T14:09:30;14.70;;;4.95;;
50205;SDS011;36098;48.390;10.856;2022-12-18T14:11:59;18.77;;;5.35;;
50205;SDS011;36098;48.390;10.856;2022-12-18T14:14:44;13.68;;;5.13;;
50205;SDS011;36098;48.390;10.856;2022-12-18T14:17:12;17.70;;;5.22;;
50205;SDS011;36098;48.390;10.856;2022-12-18T14:19:49;9.48;;;4.93;;
50205;SDS011;36098;48.390;10.856;2022-12-18T14:22:20;12.02;;;4.90;;
50205;SDS011;36098;48.390;10.856;2022-12-18T14:25:15;14.98;;;4.60;;
50205;SDS011;36098;48.390;10.856;2022-12-18T14:27:38;15.68;;;5.00;;
50205;SDS011;36098;48.390;10.856;2022-12-18T14:35:33;9.50;;;4.70;;
50205;SDS011;36098;48.390;10.856;2022-12-18T14:38:10;7.68;;;4.22;;
50205;SDS011;36098;48.390;10.856;2022-12-18T14:40:51;11.38;;;4.50;;
50205;SDS011;36098;48.390;10.856;2022-12-18T14:43:18;8.90;;;4.90;;
50205;SDS011;36098;48.390;10.856;2022-12-18T14:45:44;8.32;;;4.10;;
50205;SDS011;36098;48.390;10.856;2022-12-18T14:50:36;12.73;;;5.80;;
50205;SDS011;36098;48.390;10.856;2022-12-18T14:53:02;12.52;;;5.95;;
50205;SDS011;36098;48.390;10.856;2022-12-18T14:55:28;12.43;;;6.68;;
50205;SDS011;36098;48.390;10.856;2022-12-18T14:57:54;12.63;;;6.55;;
50205;SDS011;36098;48.390;10.856;2022-12-18T15:00:21;13.65;;;6.20;;
50205;SDS011;36098;48.390;10.856;2022-12-18T15:02:49;16.23;;;6.05;;
50205;SDS011;36098;48.390;10.856;2022-12-18T15:07:53;12.32;;;5.95;;
50205;SDS011;36098;48.390;10.856;2022-12-18T15:15:43;10.95;;;5.45;;
50205;SDS011;36098;48.390;10.856;2022-12-18T15:20:48;10.05;;;5.20;;
50205;SDS011;36098;48.390;10.856;2022-12-18T15:23:19;11.20;;;4.90;;
50205;SDS011;36098;48.390;10.856;2022-12-18T15:26:08;10.63;;;5.22;;
50205;SDS011;36098;48.390;10.856;2022-12-18T15:28:38;10.55;;;5.25;;
50205;SDS011;36098;48.390;10.856;2022-12-18T15:33:43;10.75;;;5.13;;
50205;SDS011;36098;48.390;10.856;2022-12-18T15:36:17;8.00;;;4.65;;
50205;SDS011;36098;48.390;10.856;2022-12-18T15:38:46;9.38;;;4.68;;
50205;SDS011;36098;48.390;10.856;2022-12-18T15:41:22;7.95;;;4.57;;
50205;SDS011;36098;48.390;10.856;2022-12-18T15:43:48;11.13;;;5.03;;
50205;SDS011;36098;48.390;10.856;2022-12-18T15:46:22;10.90;;;4.53;;
50205;SDS011;36098;48.390;10.856;2022-12-18T15:48:51;9.38;;;4.90;;
50205;SDS011;36098;48.390;10.856;2022-12-18T15:51:18;7.57;;;4.55;;
50205;SDS011;36098;48.390;10.856;2022-12-18T15:53:50;8.90;;;4.18;;
50205;SDS011;36098;48.390;10.856;2022-12-18T15:56:18;7.10;;;4.40;;
50205;SDS011;36098;48.390;10.856;2022-12-18T16:01:29;6.60;;;4.10;;
50205;SDS011;36098;48.390;10.856;2022-12-18T16:03:56;8.80;;;4.55;;
50205;SDS011;36098;48.390;10.856;2022-12-18T16:06:22;8.32;;;4.90;;
50205;SDS011;36098;48.390;10.856;2022-12-18T16:08:48;8.55;;;4.45;;
50205;SDS011;36098;48.390;10.856;2022-12-18T16:13:45;7.15;;;4.63;;
50205;SDS011;36098;48.390;10.856;2022-12-18T16:16:11;8.00;;;4.55;;
50205;SDS011;36098;48.390;10.856;2022-12-18T16:18:36;7.00;;;4.05;;
50205;SDS011;36098;48.390;10.856;2022-12-18T16:21:01;10.07;;;5.07;;
50205;SDS011;36098;48.390;10.856;2022-12-18T16:23:27;9.70;;;5.25;;
50205;SDS011;36098;48.390;10.856;2022-12-18T16:25:52;9.77;;;5.07;;
50205;SDS011;36098;48.390;10.856;2022-12-18T16:28:17;14.68;;;5.30;;
50205;SDS011;36098;48.390;10.856;2022-12-18T16:30:42;7.63;;;4.63;;
50205;SDS011;36098;48.390;10.856;2022-12-18T16:33:09;12.10;;;5.20;;
50205;SDS011;36098;48.390;10.856;2022-12-18T16:35:35;9.82;;;4.68;;
50205;SDS011;36098;48.390;10.856;2022-12-18T16:38:02;8.02;;;4.40;;
50205;SDS011;36098;48.390;10.856;2022-12-18T16:40:27;9.55;;;4.50;;
50205;SDS011;36098;48.390;10.856;2022-12-18T16:42:52;10.63;;;4.75;;